Time;durP1;ratioP1;P1;durP2;ratioP2;P2;SDS_P1;SDS_P2;PMS_P1;PMS_P2;Temp;Humidity;BMP_temperature;BMP_pressure;BME280_temperature;BME280_humidity;BME280_pressure;Samples;Min_cycle;Max_cycle;Signal;HPM_P1;HPM_P2
2023/03/12 00:00:44;;;;;;;5.15;2.10;;;3.70;94.70;;;;;;5079560;28;20038;-64
2023/03/12 00:03:10;;;;;;;3.88;2.22;;;3.70;94.70;;;;;;5091258;28;20032;-64
2023/03/12 00:05:37;;;;;;;4.20;2.22;;;3.70;94.70;;;;;;5098582;28;20035;-64
2023/03/12 00:08:03;;;;;;;3.40;2.05;;;3.70;94.80;;;;;;5090306;28;20064;-64
2023/03/12 00:10:29;;;;;;;3.88;2.13;;;3.70;94.80;;;;;;5099884;28;20133;-64
2023/03/12 00:12:55;;;;;;;5.55;2.15;;;3.70;94.80;;;;;;5095756;28;20023;-64
2023/03/12 00:15:21;;;;;;;5.03;2.50;;;3.70;94.80;;;;;;5103070;28;20476;-64
2023/03/12 00:17:47;;;;;;;4.40;1.90;;;3.70;94.70;;;;;;5089613;28;20081;-63
2023/03/12 00:20:13;;;;;;;3.50;1.88;;;3.70;94.90;;;;;;5089565;28;20069;-64
2023/03/12 00:22:39;;;;;;;5.13;1.88;;;3.70;94.70;;;;;;5093868;28;20035;-64
2023/03/12 00:25:09;;;;;;;4.05;2.08;;;3.60;94.70;;;;;;5101527;28;20071;-64
2023/03/12 00:27:35;;;;;;;7.25;2.83;;;3.70;94.70;;;;;;5091760;28;20467;-64
2023/03/12 00:30:02;;;;;;;6.70;2.25;;;3.70;94.70;;;;;;5096988;28;20139;-65
2023/03/12 00:32:28;;;;;;;4.80;2.75;;;3.70;94.70;;;;;;5085765;28;20036;-64
2023/03/12 00:34:54;;;;;;;4.10;2.30;;;3.70;94.70;;;;;;5096481;28;20032;-63
2023/03/12 00:37:21;;;;;;;3.80;2.22;;;3.70;94.70;;;;;;5084083;28;20029;-64
2023/03/12 00:39:47;;;;;;;4.35;2.05;;;3.70;94.70;;;;;;5100707;28;20027;-64
2023/03/12 00:42:12;;;;;;;5.25;2.25;;;3.70;94.70;;;;;;5092965;28;20529;-64
2023/03/12 00:44:38;;;;;;;5.25;2.45;;;3.70;94.70;;;;;;5101138;28;20111;-64
2023/03/12 00:47:04;;;;;;;5.03;2.20;;;3.70;94.60;;;;;;5088613;28;20024;-64
2023/03/12 00:49:29;;;;;;;4.57;2.45;;;3.70;94.60;;;;;;5098292;28;20447;-64
2023/03/12 00:51:55;;;;;;;3.40;2.20;;;3.60;94.60;;;;;;5099971;28;20498;-64
2023/03/12 00:54:21;;;;;;;5.88;2.60;;;3.70;94.60;;;;;;5087707;28;20039;-64
2023/03/12 00:56:47;;;;;;;3.92;2.30;;;3.60;94.60;;;;;;5099849;28;20052;-65
2023/03/12 00:59:14;;;;;;;4.93;2.28;;;3.70;94.60;;;;;;5104105;28;20055;-65
2023/03/12 01:01:41;;;;;;;4.68;2.50;;;3.70;94.60;;;;;;5085699;28;20111;-65
2023/03/12 01:04:07;;;;;;;4.30;2.45;;;3.70;94.50;;;;;;5090445;28;20020;-65
2023/03/12 01:06:32;;;;;;;4.03;2.15;;;3.70;94.60;;;;;;5093222;28;20397;-65
2023/03/12 01:09:00;;;;;;;3.65;2.10;;;3.70;94.60;;;;;;5090279;28;20032;-65
2023/03/12 01:11:26;;;;;;;3.33;1.90;;;3.70;94.60;;;;;;5095906;28;20039;-65
2023/03/12 01:13:52;;;;;;;4.55;2.67;;;3.70;94.60;;;;;;5090765;28;20028;-64
2023/03/12 01:16:17;;;;;;;4.95;2.65;;;3.80;94.60;;;;;;5085116;28;20032;-63
2023/03/12 01:18:43;;;;;;;4.57;2.65;;;3.80;94.70;;;;;;5092645;28;20619;-64
2023/03/12 01:21:08;;;;;;;6.00;2.40;;;3.80;94.60;;;;;;5091360;28;20119;-65
2023/03/12 01:23:34;;;;;;;5.47;2.50;;;3.90;94.60;;;;;;5094508;28;20058;-65
2023/03/12 01:25:59;;;;;;;4.20;2.78;;;3.90;94.60;;;;;;5094402;28;20024;-65
2023/03/12 01:28:25;;;;;;;5.38;2.38;;;3.90;94.60;;;;;;5093691;28;20028;-64
2023/03/12 01:30:52;;;;;;;4.00;2.10;;;3.90;94.60;;;;;;5093275;28;20036;-64
2023/03/12 01:33:17;;;;;;;9.35;2.67;;;4.00;94.70;;;;;;5089955;28;20027;-64
2023/03/12 01:35:44;;;;;;;5.15;2.13;;;4.00;94.60;;;;;;5091520;28;20069;-65
2023/03/12 01:38:13;;;;;;;5.65;2.10;;;4.10;94.60;;;;;;5094737;28;20030;-65
2023/03/12 01:40:39;;;;;;;4.68;2.83;;;4.10;94.50;;;;;;5091595;28;20449;-65
2023/03/12 01:43:21;;;;;;;6.07;2.58;;;4.10;94.50;;;;;;5084463;28;20537;-65
2023/03/12 01:46:07;;;;;;;5.50;2.83;;;4.00;94.50;;;;;;5090173;28;20085;-65
2023/03/12 01:48:52;;;;;;;5.05;2.70;;;4.10;94.40;;;;;;5091872;28;20429;-64
2023/03/12 01:51:19;;;;;;;4.82;2.03;;;4.10;94.40;;;;;;5093528;28;20092;-64
2023/03/12 01:53:49;;;;;;;5.40;2.42;;;4.10;94.40;;;;;;5093028;28;20410;-65
2023/03/12 01:56:17;;;;;;;5.78;2.15;;;4.10;94.50;;;;;;5107515;28;20131;-64
2023/03/12 01:58:50;;;;;;;4.80;2.10;;;4.10;94.50;;;;;;5097192;28;20047;-65
2023/03/12 02:01:20;;;;;;;4.63;2.00;;;4.10;94.50;;;;;;5094910;28;20165;-65
2023/03/12 02:03:50;;;;;;;5.75;2.55;;;4.20;94.50;;;;;;5082165;28;20031;-65
2023/03/12 02:06:19;;;;;;;5.10;2.28;;;4.30;94.60;;;;;;5102967;28;20122;-65
2023/03/12 02:08:46;;;;;;;4.50;2.05;;;4.20;94.50;;;;;;5112630;28;20028;-65
2023/03/12 02:11:12;;;;;;;4.70;2.17;;;4.20;94.50;;;;;;5093911;28;20036;-65
2023/03/12 02:13:38;;;;;;;4.65;2.13;;;4.20;94.50;;;;;;5090894;28;20024;-65
2023/03/12 02:16:05;;;;;;;4.72;2.42;;;4.30;94.50;;;;;;5092496;28;20125;-65
2023/03/12 02:18:33;;;;;;;7.88;3.45;;;4.30;94.50;;;;;;5090380;28;20031;-65
2023/03/12 02:21:32;;;;;;;7.10;2.50;;;4.30;94.50;;;;;;5108091;28;20467;-65
2023/03/12 02:24:34;;;;;;;6.18;2.40;;;4.30;94.60;;;;;;5076924;28;20063;-65
2023/03/12 02:27:01;;;;;;;5.93;2.45;;;4.30;94.50;;;;;;5082929;28;20032;-65
2023/03/12 02:29:30;;;;;;;4.75;1.90;;;4.30;94.50;;;;;;5092749;28;20044;-65
2023/03/12 02:31:59;;;;;;;5.43;2.53;;;4.30;94.50;;;;;;5105069;28;20494;-65
2023/03/12 02:34:25;;;;;;;3.83;1.90;;;4.30;94.40;;;;;;5092326;28;20077;-65
2023/03/12 02:36:51;;;;;;;6.10;2.20;;;4.30;94.50;;;;;;5084547;28;20119;-65
2023/03/12 02:39:17;;;;;;;4.00;2.40;;;4.40;94.50;;;;;;5091246;28;20043;-65
2023/03/12 02:41:47;;;;;;;4.70;2.20;;;4.40;94.50;;;;;;5101188;28;20449;-65
2023/03/12 02:44:19;;;;;;;4.80;2.38;;;4.40;94.50;;;;;;5090471;28;20036;-65
2023/03/12 02:46:48;;;;;;;14.82;2.60;;;4.30;94.40;;;;;;5093358;28;20038;-65
2023/03/12 02:49:15;;;;;;;5.80;2.35;;;4.30;94.40;;;;;;5088981;28;20034;-65
2023/03/12 02:51:42;;;;;;;5.07;2.50;;;4.30;94.30;;;;;;5086632;28;20032;-65
2023/03/12 02:54:09;;;;;;;5.35;2.30;;;4.30;94.40;;;;;;5086721;28;20026;-63
2023/03/12 02:56:34;;;;;;;6.07;2.42;;;4.20;94.30;;;;;;5097961;28;20059;-64
2023/03/12 02:59:00;;;;;;;5.25;2.53;;;4.20;94.40;;;;;;5092075;28;20098;-64
2023/03/12 03:01:26;;;;;;;5.00;2.28;;;4.20;94.40;;;;;;5089038;28;20054;-66
2023/03/12 03:03:53;;;;;;;4.78;2.78;;;4.10;94.40;;;;;;5091144;28;20040;-66
2023/03/12 03:06:19;;;;;;;4.22;2.33;;;4.10;94.40;;;;;;5095148;28;20028;-65
2023/03/12 03:08:45;;;;;;;7.00;2.40;;;4.10;94.40;;;;;;5072714;28;20024;-65
2023/03/12 03:11:11;;;;;;;4.82;3.20;;;4.10;94.40;;;;;;5082766;28;20471;-65
2023/03/12 03:13:37;;;;;;;5.30;2.22;;;4.00;94.40;;;;;;5091538;28;20056;-65
2023/03/12 03:16:03;;;;;;;5.63;2.80;;;4.00;94.40;;;;;;5089475;28;20067;-65
2023/03/12 03:18:30;;;;;;;6.30;2.15;;;3.90;94.40;;;;;;5092316;28;20032;-64
2023/03/12 03:21:01;;;;;;;6.07;2.75;;;3.90;94.70;;;;;;5099302;28;20108;-65
2023/03/12 03:23:26;;;;;;;6.50;2.67;;;3.90;94.50;;;;;;5074846;28;20043;-65
2023/03/12 03:25:52;;;;;;;3.75;2.00;;;3.90;94.50;;;;;;5093201;28;20035;-65
2023/03/12 03:28:20;;;;;;;5.15;2.75;;;3.90;94.50;;;;;;5092071;28;20068;-64
2023/03/12 03:30:46;;;;;;;4.50;2.28;;;3.80;94.50;;;;;;5097873;28;20424;-65
2023/03/12 03:33:12;;;;;;;6.32;2.03;;;3.80;94.60;;;;;;5092982;28;20240;-65
2023/03/12 03:35:37;;;;;;;4.22;2.13;;;3.80;94.60;;;;;;5096216;28;20028;-64
2023/03/12 03:38:03;;;;;;;4.18;2.58;;;3.80;94.60;;;;;;5110479;28;20118;-64
2023/03/12 03:40:29;;;;;;;7.95;2.70;;;3.70;94.60;;;;;;5092290;28;20038;-64
2023/03/12 03:42:54;;;;;;;4.10;2.33;;;3.70;94.70;;;;;;5092995;28;20039;-65
2023/03/12 03:45:20;;;;;;;5.80;2.22;;;3.70;94.70;;;;;;5091975;28;20039;-64
2023/03/12 03:47:46;;;;;;;4.43;2.60;;;3.70;94.70;;;;;;5103978;28;20031;-64
2023/03/12 03:50:12;;;;;;;5.55;2.17;;;3.70;94.70;;;;;;5090603;28;20427;-63
2023/03/12 03:52:37;;;;;;;5.88;2.90;;;3.70;94.80;;;;;;5089486;28;20035;-65
2023/03/12 03:55:04;;;;;;;3.95;1.83;;;3.60;94.80;;;;;;5089736;28;20043;-64
2023/03/12 03:57:29;;;;;;;5.03;2.70;;;3.60;94.80;;;;;;5091823;28;20055;-65
2023/03/12 03:59:57;;;;;;;3.38;2.33;;;3.60;94.90;;;;;;5092258;28;20040;-64
2023/03/12 04:02:24;;;;;;;4.10;2.53;;;3.60;94.90;;;;;;5086823;28;20119;-65
2023/03/12 04:04:50;;;;;;;4.00;2.20;;;3.60;94.90;;;;;;5093334;28;20036;-65
2023/03/12 04:07:16;;;;;;;7.35;2.47;;;3.50;94.90;;;;;;5099228;28;20023;-65
2023/03/12 04:09:42;;;;;;;3.75;2.17;;;3.50;94.90;;;;;;5091820;28;20032;-65
2023/03/12 04:12:07;;;;;;;6.65;2.42;;;3.50;95.00;;;;;;5090039;28;20028;-65
2023/03/12 04:14:33;;;;;;;5.85;2.08;;;3.60;95.00;;;;;;5087642;28;20035;-64
2023/03/12 04:16:58;;;;;;;3.60;2.22;;;3.50;95.00;;;;;;5092062;28;20043;-65
2023/03/12 04:19:24;;;;;;;4.60;2.47;;;3.50;95.00;;;;;;5091065;28;20032;-63
2023/03/12 04:21:50;;;;;;;4.95;2.47;;;3.50;95.00;;;;;;5090346;28;20214;-64
2023/03/12 04:24:16;;;;;;;4.30;2.30;;;3.50;95.00;;;;;;5091443;28;20032;-64
2023/03/12 04:26:42;;;;;;;5.65;3.00;;;3.50;95.00;;;;;;5090886;28;20032;-64
2023/03/12 04:29:08;;;;;;;5.70;3.00;;;3.40;95.00;;;;;;5088338;28;20127;-64
2023/03/12 04:31:34;;;;;;;9.35;4.05;;;3.40;95.10;;;;;;5095603;28;20115;-64
2023/03/12 04:33:59;;;;;;;8.23;3.80;;;3.40;95.20;;;;;;5091713;28;20102;-64
2023/03/12 04:36:25;;;;;;;8.15;3.50;;;3.40;95.20;;;;;;5092819;28;20126;-64
2023/03/12 04:38:51;;;;;;;5.70;3.35;;;3.30;95.20;;;;;;5091349;28;20027;-65
2023/03/12 04:41:17;;;;;;;5.80;3.20;;;3.30;95.30;;;;;;5091886;28;20028;-64
2023/03/12 04:43:43;;;;;;;7.22;3.53;;;3.30;95.30;;;;;;5092539;28;20042;-64
2023/03/12 04:46:09;;;;;;;7.93;5.07;;;3.30;95.40;;;;;;5089772;28;20476;-64
2023/03/12 04:48:35;;;;;;;7.20;4.93;;;3.30;95.40;;;;;;5100601;28;20032;-64
2023/03/12 04:51:02;;;;;;;7.20;3.47;;;3.30;95.40;;;;;;5093946;28;20031;-64
2023/03/12 04:53:28;;;;;;;6.60;3.75;;;3.30;95.50;;;;;;5102422;28;20024;-65
2023/03/12 04:55:54;;;;;;;8.00;4.85;;;3.30;95.50;;;;;;5097843;28;20080;-64
2023/03/12 04:58:20;;;;;;;9.95;4.22;;;3.30;95.60;;;;;;5097973;28;20101;-64
2023/03/12 05:00:47;;;;;;;6.20;4.07;;;3.20;95.60;;;;;;5098198;28;20026;-64
2023/03/12 05:03:13;;;;;;;5.53;3.88;;;3.20;95.70;;;;;;5090517;28;20025;-64
2023/03/12 05:05:38;;;;;;;7.03;4.28;;;3.20;95.70;;;;;;5103137;28;20151;-64
2023/03/12 05:08:04;;;;;;;7.03;4.50;;;3.30;95.70;;;;;;5101054;28;20052;-65
2023/03/12 05:10:31;;;;;;;8.15;4.43;;;3.20;95.80;;;;;;5086285;28;20097;-64
2023/03/12 05:12:56;;;;;;;8.40;3.80;;;3.20;95.80;;;;;;5106313;28;20028;-65
2023/03/12 05:15:23;;;;;;;9.77;3.97;;;3.30;95.80;;;;;;5104325;28;20084;-65
2023/03/12 05:17:48;;;;;;;6.32;4.00;;;3.20;95.80;;;;;;5096749;27;20031;-65
2023/03/12 05:20:16;;;;;;;7.43;3.95;;;3.20;95.90;;;;;;5091936;28;20035;-65
2023/03/12 05:22:42;;;;;;;7.38;4.53;;;3.20;95.90;;;;;;5101283;28;20293;-65
2023/03/12 05:25:08;;;;;;;9.30;4.88;;;3.20;95.90;;;;;;5095670;28;20027;-64
2023/03/12 05:27:34;;;;;;;6.90;4.63;;;3.20;96.00;;;;;;5103554;28;20360;-65
2023/03/12 05:30:00;;;;;;;8.02;3.90;;;3.20;96.00;;;;;;5085896;28;20032;-65
2023/03/12 05:32:25;;;;;;;6.60;3.70;;;3.20;96.00;;;;;;5093594;28;20036;-66
2023/03/12 05:34:51;;;;;;;5.50;3.83;;;3.20;96.00;;;;;;5094167;28;20028;-66
2023/03/12 05:37:17;;;;;;;5.88;3.80;;;3.10;96.00;;;;;;5095936;28;20031;-66
2023/03/12 05:39:45;;;;;;;5.05;3.30;;;3.20;96.10;;;;;;5106195;28;20059;-66
2023/03/12 05:42:12;;;;;;;7.32;3.65;;;3.10;96.30;;;;;;5095841;28;20057;-66
2023/03/12 05:44:38;;;;;;;9.02;3.70;;;3.10;96.20;;;;;;5082271;28;20059;-65
2023/03/12 05:47:04;;;;;;;6.28;3.35;;;3.20;96.20;;;;;;5081758;28;20467;-65
2023/03/12 05:49:30;;;;;;;5.55;3.67;;;3.20;96.20;;;;;;5087403;28;20468;-65
2023/03/12 05:51:56;;;;;;;7.75;3.75;;;3.10;96.20;;;;;;5091700;28;20036;-65
2023/03/12 05:54:22;;;;;;;6.53;3.83;;;3.10;96.20;;;;;;5092836;28;20032;-65
2023/03/12 05:56:47;;;;;;;7.93;3.22;;;3.20;96.30;;;;;;5091394;28;20050;-65
2023/03/12 05:59:13;;;;;;;5.82;3.25;;;3.20;96.30;;;;;;5092579;28;20036;-65
2023/03/12 06:01:40;;;;;;;7.20;3.55;;;3.20;96.30;;;;;;5087227;28;20564;-65
2023/03/12 06:04:06;;;;;;;7.97;3.40;;;3.20;96.30;;;;;;5099206;28;20036;-65
2023/03/12 06:06:33;;;;;;;4.85;2.90;;;3.20;96.30;;;;;;5098843;28;20114;-66
2023/03/12 06:08:59;;;;;;;5.40;2.92;;;3.20;96.30;;;;;;5095706;28;20036;-65
2023/03/12 06:11:25;;;;;;;4.97;3.35;;;3.30;96.30;;;;;;5090247;28;20140;-65
2023/03/12 06:13:50;;;;;;;5.10;3.03;;;3.30;96.30;;;;;;5092999;28;20024;-65
2023/03/12 06:16:24;;;;;;;7.07;3.72;;;3.30;96.40;;;;;;5088451;28;20043;-65
2023/03/12 06:18:55;;;;;;;7.22;3.35;;;3.30;96.40;;;;;;5092028;28;20487;-65
2023/03/12 06:21:24;;;;;;;6.45;2.97;;;3.30;96.40;;;;;;5098362;28;20031;-64
2023/03/12 06:23:51;;;;;;;5.32;3.28;;;3.30;96.40;;;;;;5097031;28;20124;-64
2023/03/12 06:26:18;;;;;;;4.53;2.88;;;3.30;96.60;;;;;;5091572;28;20491;-65
2023/03/12 06:28:45;;;;;;;6.40;3.63;;;3.30;96.30;;;;;;5091396;28;20043;-64
2023/03/12 06:31:11;;;;;;;4.85;3.10;;;3.40;96.40;;;;;;5091583;28;20480;-66
2023/03/12 06:33:37;;;;;;;7.05;2.83;;;3.40;96.40;;;;;;5091405;28;20049;-67
2023/03/12 06:36:06;;;;;;;4.55;2.63;;;3.40;96.40;;;;;;5090638;28;20031;-67
2023/03/12 06:38:32;;;;;;;8.05;3.92;;;3.40;96.40;;;;;;5092083;28;20039;-67
2023/03/12 06:41:07;;;;;;;5.93;3.22;;;3.40;96.40;;;;;;5088348;28;20025;-67
2023/03/12 06:43:35;;;;;;;9.52;4.22;;;3.50;96.50;;;;;;5092529;28;20024;-68
2023/03/12 06:46:02;;;;;;;10.25;4.68;;;3.50;96.50;;;;;;5092094;28;20129;-68
2023/03/12 06:48:29;;;;;;;7.70;3.47;;;3.50;96.50;;;;;;5080301;28;20036;-68
2023/03/12 06:50:55;;;;;;;5.53;3.15;;;3.60;96.50;;;;;;5086503;28;20044;-67
2023/03/12 06:53:22;;;;;;;6.15;2.95;;;3.60;96.50;;;;;;5078667;28;20029;-67
2023/03/12 06:55:50;;;;;;;5.00;3.17;;;3.60;96.50;;;;;;5083418;28;20036;-67
2023/03/12 06:58:16;;;;;;;5.70;3.15;;;3.60;96.50;;;;;;5092315;28;20051;-68
2023/03/12 07:00:42;;;;;;;5.15;3.00;;;3.70;96.50;;;;;;5091185;28;20468;-69
2023/03/12 07:03:07;;;;;;;6.75;2.90;;;3.80;96.60;;;;;;5092030;28;20081;-69
2023/03/12 07:05:33;;;;;;;3.80;2.72;;;3.80;96.50;;;;;;5090993;28;20407;-69
2023/03/12 07:07:58;;;;;;;6.30;3.00;;;3.80;96.50;;;;;;5090622;28;20036;-69
2023/03/12 07:10:26;;;;;;;6.80;2.97;;;3.90;96.50;;;;;;5090794;28;20487;-69
2023/03/12 07:12:52;;;;;;;5.85;3.25;;;3.90;96.50;;;;;;5083407;28;20472;-69
2023/03/12 07:15:18;;;;;;;7.50;3.75;;;4.00;96.60;;;;;;5084719;28;20035;-69
2023/03/12 07:17:43;;;;;;;9.07;4.03;;;4.10;96.80;;;;;;5089313;28;20029;-68
2023/03/12 07:20:10;;;;;;;5.15;3.58;;;4.10;96.60;;;;;;5092093;28;20032;-69
2023/03/12 07:22:35;;;;;;;5.47;3.00;;;4.20;96.60;;;;;;5087981;28;20071;-70
2023/03/12 07:25:01;;;;;;;5.43;3.28;;;4.30;96.50;;;;;;5103447;28;20055;-69
2023/03/12 07:27:27;;;;;;;5.70;3.53;;;4.40;96.50;;;;;;5090854;28;20459;-68
2023/03/12 07:29:52;;;;;;;5.80;3.05;;;4.40;96.50;;;;;;5094431;28;20023;-69
2023/03/12 07:32:18;;;;;;;6.05;3.33;;;4.50;96.50;;;;;;5098780;28;20471;-69
2023/03/12 07:34:44;;;;;;;5.05;3.25;;;4.60;96.50;;;;;;5084822;28;20036;-69
2023/03/12 07:37:09;;;;;;;4.05;2.58;;;4.60;96.40;;;;;;5112547;28;20437;-70
2023/03/12 07:39:35;;;;;;;5.18;2.95;;;4.70;96.30;;;;;;5090207;28;20043;-70
2023/03/12 07:42:01;;;;;;;5.57;2.60;;;4.70;96.20;;;;;;5099596;28;20081;-70
2023/03/12 07:44:26;;;;;;;8.52;3.40;;;4.70;96.10;;;;;;5093059;28;20055;-71
2023/03/12 07:46:52;;;;;;;6.55;2.83;;;4.70;96.10;;;;;;5087497;28;20032;-71
2023/03/12 07:49:19;;;;;;;5.43;2.35;;;4.80;96.00;;;;;;5090190;28;20036;-71
2023/03/12 07:51:45;;;;;;;6.75;3.03;;;4.80;96.00;;;;;;5098881;28;20039;-70
2023/03/12 07:54:11;;;;;;;4.95;2.65;;;4.80;95.90;;;;;;5091194;28;20032;-70
2023/03/12 07:56:37;;;;;;;4.55;2.92;;;4.80;95.80;;;;;;5105075;28;20073;-69
2023/03/12 07:59:03;;;;;;;5.20;2.97;;;4.80;95.70;;;;;;5077797;28;20462;-70
2023/03/12 08:01:30;;;;;;;4.47;2.80;;;4.80;95.70;;;;;;5091787;28;20034;-71
2023/03/12 08:04:00;;;;;;;4.38;2.92;;;4.80;95.70;;;;;;5084991;28;20020;-70
2023/03/12 08:06:27;;;;;;;4.13;2.58;;;4.90;95.70;;;;;;5094662;28;20495;-70
2023/03/12 08:08:52;;;;;;;6.05;3.10;;;4.90;95.70;;;;;;5106857;28;20024;-70
2023/03/12 08:11:18;;;;;;;6.43;3.00;;;5.00;95.70;;;;;;5088665;28;20495;-70
2023/03/12 08:13:43;;;;;;;3.47;2.42;;;5.00;95.70;;;;;;5098164;28;20028;-70
2023/03/12 08:16:09;;;;;;;6.35;3.95;;;5.10;95.60;;;;;;5099848;28;20024;-70
2023/03/12 08:18:35;;;;;;;4.65;2.90;;;5.10;95.70;;;;;;5090542;28;20099;-73
2023/03/12 08:21:01;;;;;;;4.90;2.80;;;5.10;95.70;;;;;;5099992;28;20031;-71
2023/03/12 08:23:26;;;;;;;5.38;2.95;;;5.20;95.60;;;;;;5096294;28;20032;-70
2023/03/12 08:25:53;;;;;;;7.10;2.90;;;5.30;95.60;;;;;;5098461;28;20055;-71
2023/03/12 08:28:20;;;;;;;4.90;3.00;;;5.30;95.60;;;;;;5096770;28;20529;-70
2023/03/12 08:30:52;;;;;;;6.57;2.97;;;5.30;95.50;;;;;;5092470;28;20494;-68
2023/03/12 08:33:18;;;;;;;6.65;2.92;;;5.40;95.40;;;;;;5085379;28;20063;-68
2023/03/12 08:35:44;;;;;;;6.28;2.88;;;5.40;95.40;;;;;;5092087;28;20039;-69
2023/03/12 08:38:10;;;;;;;6.80;3.05;;;5.50;95.40;;;;;;5087698;28;20020;-69
2023/03/12 08:40:36;;;;;;;6.05;3.00;;;5.50;95.30;;;;;;5094048;28;20037;-68
2023/03/12 08:43:02;;;;;;;5.75;3.38;;;5.50;95.20;;;;;;5096314;28;20107;-69
2023/03/12 08:45:27;;;;;;;5.75;3.00;;;5.60;95.20;;;;;;5100550;28;20051;-68
2023/03/12 08:47:53;;;;;;;3.95;2.75;;;5.60;95.20;;;;;;5087650;28;20472;-69
2023/03/12 08:50:21;;;;;;;5.78;3.00;;;5.70;95.10;;;;;;5095369;28;20042;-69
2023/03/12 08:52:46;;;;;;;7.20;3.17;;;5.70;95.10;;;;;;5099631;28;20042;-69
2023/03/12 08:55:12;;;;;;;5.82;2.83;;;5.80;95.10;;;;;;5086412;28;20756;-69
2023/03/12 08:57:38;;;;;;;5.47;2.35;;;5.90;95.00;;;;;;5104100;28;20071;-69
2023/03/12 09:00:10;;;;;;;5.90;2.55;;;6.00;95.00;;;;;;5103397;28;20032;-70
2023/03/12 09:02:36;;;;;;;4.00;2.47;;;6.10;94.90;;;;;;5100828;28;20487;-70
2023/03/12 09:05:02;;;;;;;5.03;2.72;;;6.20;94.90;;;;;;5101850;28;20028;-69
2023/03/12 09:07:30;;;;;;;4.55;3.05;;;6.30;94.90;;;;;;5096705;28;20386;-69
2023/03/12 09:09:56;;;;;;;4.07;2.40;;;6.30;94.80;;;;;;5106149;28;20147;-69
2023/03/12 09:12:22;;;;;;;5.90;2.20;;;6.30;94.70;;;;;;5090652;28;20613;-69
2023/03/12 09:14:49;;;;;;;5.72;1.85;;;6.40;94.70;;;;;;5092882;28;20262;-69
2023/03/12 09:17:14;;;;;;;3.17;1.98;;;6.40;94.60;;;;;;5095189;28;20039;-69
2023/03/12 09:19:40;;;;;;;5.18;2.30;;;6.40;94.40;;;;;;5097072;28;20016;-69
2023/03/12 09:22:06;;;;;;;5.15;2.58;;;6.50;94.40;;;;;;5095894;28;20123;-70
2023/03/12 09:24:32;;;;;;;5.03;2.10;;;6.50;94.30;;;;;;5093790;28;20028;-69
2023/03/12 09:26:58;;;;;;;5.20;3.28;;;6.50;94.20;;;;;;5100750;28;20032;-69
2023/03/12 09:29:23;;;;;;;4.85;2.45;;;6.60;94.20;;;;;;5081833;28;20128;-69
2023/03/12 09:31:50;;;;;;;6.10;2.53;;;6.60;94.10;;;;;;5093338;28;20035;-69
2023/03/12 09:34:16;;;;;;;4.68;2.55;;;6.70;94.10;;;;;;5097672;28;20395;-69
2023/03/12 09:36:42;;;;;;;4.43;2.10;;;6.80;94.00;;;;;;5082087;28;20495;-68
2023/03/12 09:39:07;;;;;;;8.18;2.75;;;6.80;94.00;;;;;;5096759;28;20032;-69
2023/03/12 09:41:38;;;;;;;5.13;2.35;;;6.90;94.10;;;;;;5100749;28;20033;-69
2023/03/12 09:44:09;;;;;;;5.97;2.42;;;7.00;94.10;;;;;;5094271;28;20031;-70
2023/03/12 09:46:48;;;;;;;4.28;2.20;;;7.10;94.00;;;;;;5091690;28;20105;-68
2023/03/12 09:49:29;;;;;;;4.70;2.17;;;7.10;93.90;;;;;;5103094;28;20031;-69
2023/03/12 09:51:57;;;;;;;3.67;2.00;;;7.20;93.80;;;;;;5085262;28;20475;-68
2023/03/12 09:54:44;;;;;;;5.65;3.10;;;7.20;93.70;;;;;;5092840;28;20070;-68
2023/03/12 09:57:13;;;;;;;4.57;1.98;;;7.30;93.70;;;;;;5097998;28;20130;-68
2023/03/12 09:59:38;;;;;;;7.60;2.45;;;7.30;93.80;;;;;;5099514;28;20032;-68
2023/03/12 10:02:37;;;;;;;3.63;1.75;;;7.40;93.70;;;;;;5098650;28;20043;-67
2023/03/12 10:05:33;;;;;;;3.83;1.58;;;7.50;93.40;;;;;;5072453;28;20046;-67
2023/03/12 10:08:19;;;;;;;;;;;7.60;93.30;;;;;;5094433;28;20023;-68
2023/03/12 10:10:55;;;;;;;5.13;2.20;;;7.80;93.70;;;;;;5095016;28;19920;-67
2023/03/12 10:14:06;;;;;;;4.45;1.77;;;7.80;93.30;;;;;;5096260;28;20028;-68
2023/03/12 10:16:48;;;;;;;3.70;1.88;;;7.90;93.30;;;;;;5089506;28;20027;-69
2023/03/12 10:19:29;;;;;;;4.07;1.95;;;8.00;93.20;;;;;;5100955;28;20032;-68
2023/03/12 10:22:24;;;;;;;4.22;1.88;;;8.10;93.00;;;;;;5085674;28;20027;-68
2023/03/12 10:25:25;;;;;;;4.63;1.98;;;8.30;92.80;;;;;;5106528;28;20504;-68
2023/03/12 10:27:52;;;;;;;4.15;2.50;;;8.40;92.70;;;;;;5091382;28;20068;-69
2023/03/12 10:30:22;;;;;;;4.43;2.40;;;8.50;92.70;;;;;;5094436;28;20046;-67
2023/03/12 10:33:05;;;;;;;5.60;2.00;;;8.60;92.80;;;;;;5092383;28;20086;-68
2023/03/12 10:35:31;;;;;;;10.93;2.08;;;8.60;92.40;;;;;;5092783;28;20105;-69
2023/03/12 10:38:02;;;;;;;2.78;1.80;;;8.70;92.40;;;;;;5091051;28;20064;-68
2023/03/12 10:40:33;;;;;;;5.68;2.13;;;8.70;92.30;;;;;;5091336;28;20024;-68
2023/03/12 10:43:00;;;;;;;3.83;1.92;;;8.70;92.00;;;;;;5091263;28;20031;-68
2023/03/12 10:45:48;;;;;;;3.60;1.80;;;8.80;92.00;;;;;;5092731;28;20039;-67
2023/03/12 10:48:20;;;;;;;3.40;1.80;;;8.80;91.90;;;;;;5082507;28;20082;-66
2023/03/12 10:51:02;;;;;;;6.68;2.40;;;8.90;91.70;;;;;;5090769;28;20040;-69
2023/03/12 10:53:31;;;;;;;3.80;1.70;;;8.90;91.50;;;;;;5087583;28;20016;-68
2023/03/12 10:56:06;;;;;;;4.72;2.00;;;8.90;91.60;;;;;;5097347;28;20035;-69
2023/03/12 10:58:42;;;;;;;3.45;1.50;;;9.00;91.50;;;;;;5092674;28;20044;-68
2023/03/12 11:01:14;;;;;;;3.45;1.83;;;9.10;91.30;;;;;;5093263;28;20093;-71
2023/03/12 11:03:40;;;;;;;5.05;1.60;;;9.10;91.00;;;;;;5088884;28;20034;-69
2023/03/12 11:06:10;;;;;;;3.55;1.50;;;9.10;90.80;;;;;;5092771;28;20028;-69
2023/03/12 11:08:36;;;;;;;5.43;1.48;;;9.20;90.60;;;;;;5099810;28;20044;-68
2023/03/12 11:11:04;;;;;;;3.13;1.58;;;9.30;90.50;;;;;;5094785;28;20028;-66
2023/03/12 11:13:32;;;;;;;4.32;2.13;;;9.30;90.50;;;;;;5091148;28;20036;-68
2023/03/12 11:16:14;;;;;;;4.88;1.75;;;9.40;90.50;;;;;;5093108;28;20379;-67
2023/03/12 11:18:55;;;;;;;5.55;1.95;;;9.50;90.30;;;;;;5093464;28;20024;-68
2023/03/12 11:21:21;;;;;;;3.63;2.30;;;9.50;90.10;;;;;;5087286;28;20047;-66
2023/03/12 11:23:56;;;;;;;4.80;2.47;;;9.50;90.40;;;;;;5101556;28;20027;-68
2023/03/12 11:26:30;;;;;;;10.82;2.40;;;9.60;90.00;;;;;;5102308;28;20385;-67
2023/03/12 11:29:05;;;;;;;5.95;2.40;;;9.60;90.10;;;;;;5093855;28;20043;-68
2023/03/12 11:31:32;;;;;;;5.03;2.58;;;9.60;89.60;;;;;;5088883;28;20031;-68
2023/03/12 11:34:03;;;;;;;4.05;2.10;;;9.70;89.30;;;;;;5095813;28;20024;-69
2023/03/12 11:36:48;;;;;;;4.13;2.40;;;9.70;88.90;;;;;;5096695;28;20027;-69
2023/03/12 11:39:19;;;;;;;5.20;2.22;;;9.70;88.50;;;;;;5105725;28;20550;-68
2023/03/12 11:41:45;;;;;;;6.90;2.42;;;9.70;88.80;;;;;;5108201;28;20391;-69
2023/03/12 11:44:27;;;;;;;6.03;2.67;;;9.70;88.80;;;;;;5095065;28;20023;-69
2023/03/12 11:46:55;;;;;;;3.97;2.08;;;9.80;88.20;;;;;;5096591;28;20089;-70
2023/03/12 11:49:46;;;;;;;4.90;2.70;;;9.80;87.60;;;;;;5075499;28;20391;-71
2023/03/12 11:52:37;;;;;;;4.15;2.50;;;9.90;87.00;;;;;;5086470;28;20114;-69
2023/03/12 11:55:17;;;;;;;4.75;2.60;;;10.00;86.70;;;;;;5099538;28;20047;-69
2023/03/12 11:58:15;;;;;;;4.22;2.40;;;10.00;86.60;;;;;;5088926;28;20437;-70
2023/03/12 12:00:48;;;;;;;4.10;2.25;;;10.10;85.90;;;;;;5088782;28;20078;-69
2023/03/12 12:03:59;;;;;;;4.20;2.50;;;10.10;86.00;;;;;;5085673;28;20123;-70
2023/03/12 12:06:35;;;;;;;4.22;2.40;;;10.20;85.70;;;;;;5088915;28;20032;-70
2023/03/12 12:09:14;;;;;;;8.88;2.63;;;10.20;85.10;;;;;;5092966;28;20533;-69
2023/03/12 12:11:50;;;;;;;5.40;2.95;;;10.30;85.00;;;;;;5092285;28;20028;-70
2023/03/12 12:14:36;;;;;;;5.18;2.25;;;10.40;84.30;;;;;;5079129;28;20310;-69
2023/03/12 12:17:17;;;;;;;4.38;2.25;;;10.40;83.00;;;;;;5098837;28;21844;-70
2023/03/12 12:20:09;;;;;;;4.93;1.95;;;10.40;82.50;;;;;;5100594;28;20020;-70
2023/03/12 12:22:58;;;;;;;4.25;1.95;;;10.40;82.00;;;;;;5088954;28;20038;-70
2023/03/12 12:25:38;;;;;;;4.80;2.42;;;10.40;81.90;;;;;;5093677;28;20074;-69
2023/03/12 12:28:28;;;;;;;4.28;2.15;;;10.40;82.30;;;;;;5078035;28;20042;-69
2023/03/12 12:31:00;;;;;;;4.60;2.40;;;10.40;82.20;;;;;;5087836;28;20606;-69
2023/03/12 12:33:54;;;;;;;5.20;2.60;;;10.50;82.20;;;;;;5091806;28;20031;-69
2023/03/12 12:36:19;;;;;;;6.10;2.58;;;10.50;81.90;;;;;;5099197;28;20114;-68
2023/03/12 12:38:54;;;;;;;4.10;2.15;;;10.60;81.80;;;;;;5091660;28;20114;-68
2023/03/12 12:41:24;;;;;;;6.45;2.65;;;10.60;81.20;;;;;;5100590;28;20064;-69
2023/03/12 12:43:54;;;;;;;5.72;2.45;;;10.70;80.60;;;;;;5097268;28;20277;-68
2023/03/12 12:46:42;;;;;;;8.73;2.97;;;10.70;79.50;;;;;;5096472;28;20024;-69
2023/03/12 12:49:18;;;;;;;5.90;2.78;;;10.70;79.00;;;;;;5077988;28;20499;-69
2023/03/12 12:51:49;;;;;;;5.55;2.35;;;10.70;78.90;;;;;;5089556;28;20028;-68
2023/03/12 12:54:29;;;;;;;4.95;2.22;;;10.70;78.70;;;;;;5093789;28;20048;-69
2023/03/12 12:57:02;;;;;;;4.55;2.58;;;10.60;78.30;;;;;;5080776;28;20032;-69
2023/03/12 12:59:36;;;;;;;5.07;2.63;;;10.70;78.50;;;;;;5077579;28;20039;-69
2023/03/12 13:02:11;;;;;;;5.82;2.83;;;10.60;77.90;;;;;;5087651;28;20024;-69
2023/03/12 13:04:38;;;;;;;3.67;2.05;;;10.50;77.30;;;;;;5092610;28;20056;-68
2023/03/12 13:07:19;;;;;;;4.25;2.55;;;10.50;77.10;;;;;;5083778;28;20028;-68